Time;durP1;ratioP1;P1;durP2;ratioP2;P2;SDS_P1;SDS_P2;PMS_P1;PMS_P2;Temp;Humidity;BMP_temperature;BMP_pressure;BME280_temperature;BME280_humidity;BME280_pressure;Samples;Min_cycle;Max_cycle;Signal;HPM_P1;HPM_P2
2022/05/02 00:00:47;;;;;;;7.45;5.55;;;11.40;99.00;;;;;;2494603;23;20011;-71
2022/05/02 00:01:47;;;;;;;7.93;5.38;;;11.40;99.00;;;;;;2495674;23;20010;-72
2022/05/02 00:02:48;;;;;;;6.50;5.07;;;11.40;99.10;;;;;;2494726;23;20087;-72
2022/05/02 00:03:49;;;;;;;6.00;5.10;;;11.40;99.20;;;;;;2494821;23;20007;-71
2022/05/02 00:04:50;;;;;;;6.47;5.10;;;11.40;99.10;;;;;;2494912;23;20007;-72
2022/05/02 00:05:50;;;;;;;7.13;5.43;;;11.40;99.00;;;;;;2494925;23;20006;-73
2022/05/02 00:06:51;;;;;;;8.60;5.50;;;11.40;99.00;;;;;;2495124;23;20031;-72
2022/05/02 00:07:52;;;;;;;6.97;5.60;;;11.40;99.00;;;;;;2494505;23;20035;-71
2022/05/02 00:08:52;;;;;;;7.68;5.43;;;11.30;98.90;;;;;;2494764;23;20007;-72
2022/05/02 00:09:53;;;;;;;9.95;5.53;;;11.30;99.20;;;;;;2494738;23;20445;-72
2022/05/02 00:10:53;;;;;;;6.88;5.55;;;11.30;99.50;;;;;;2494768;23;20010;-72
2022/05/02 00:11:54;;;;;;;9.10;5.65;;;11.20;99.50;;;;;;2483227;23;20386;-72
2022/05/02 00:12:56;;;;;;;7.45;5.47;;;11.20;99.80;;;;;;2483123;23;20354;-72
2022/05/02 00:13:57;;;;;;;8.95;5.50;;;11.20;99.80;;;;;;2494610;23;20011;-72
2022/05/02 00:14:57;;;;;;;7.32;5.78;;;11.20;99.90;;;;;;2482937;23;20015;-72
2022/05/02 00:15:58;;;;;;;9.02;5.80;;;11.20;99.90;;;;;;2482931;23;20011;-72
2022/05/02 00:16:59;;;;;;;9.77;5.68;;;11.20;99.90;;;;;;2494036;23;20452;-72
2022/05/02 00:17:59;;;;;;;8.57;5.53;;;11.10;99.90;;;;;;2495442;23;20106;-71
2022/05/02 00:19:00;;;;;;;9.82;5.20;;;11.10;99.90;;;;;;2495584;23;20428;-72
2022/05/02 00:20:00;;;;;;;7.45;5.88;;;11.10;99.90;;;;;;2495334;23;20007;-72
2022/05/02 00:21:01;;;;;;;9.45;5.75;;;11.10;99.90;;;;;;2495692;23;20011;-70
2022/05/02 00:22:02;;;;;;;7.13;5.90;;;11.10;99.90;;;;;;2494860;23;20405;-71
2022/05/02 00:23:07;;;;;;;8.80;5.75;;;11.00;99.90;;;;;;2494917;23;20035;-72
2022/05/02 00:24:09;;;;;;;7.65;5.78;;;11.00;99.90;;;;;;2495314;23;20072;-72
2022/05/02 00:25:09;;;;;;;8.55;6.40;;;11.00;99.90;;;;;;2482865;23;20575;-73
2022/05/02 00:26:10;;;;;;;8.70;6.25;;;11.00;99.90;;;;;;2483199;23;20012;-71
2022/05/02 00:27:10;;;;;;;8.15;6.10;;;10.90;99.90;;;;;;2494940;23;20007;-72
2022/05/02 00:28:13;;;;;;;8.10;5.85;;;10.90;99.90;;;;;;2495724;23;20071;-72
2022/05/02 00:29:14;;;;;;;7.05;6.10;;;10.90;99.90;;;;;;2495025;23;20011;-72
2022/05/02 00:30:15;;;;;;;8.35;6.15;;;10.80;99.90;;;;;;2494683;23;20360;-72
2022/05/02 00:31:16;;;;;;;9.13;6.45;;;10.80;99.90;;;;;;2494969;23;20011;-71
2022/05/02 00:32:17;;;;;;;8.02;5.82;;;10.80;99.90;;;;;;2495517;23;20019;-72
2022/05/02 00:33:20;;;;;;;9.15;6.00;;;10.70;99.90;;;;;;2495872;23;20925;-72
2022/05/02 00:34:20;;;;;;;7.15;5.85;;;10.70;99.90;;;;;;2496035;23;20433;-73
2022/05/02 00:35:21;;;;;;;9.90;6.22;;;10.70;99.90;;;;;;2495986;23;20014;-72
2022/05/02 00:36:21;;;;;;;9.23;6.13;;;10.70;99.90;;;;;;2495980;23;20085;-74
2022/05/02 00:37:22;;;;;;;8.23;6.35;;;10.60;99.90;;;;;;2484475;23;20525;-73
2022/05/02 00:38:23;;;;;;;7.72;6.35;;;10.60;99.90;;;;;;2483478;23;20095;-74
2022/05/02 00:39:23;;;;;;;9.13;6.38;;;10.60;99.90;;;;;;2483427;23;20011;-73
2022/05/02 00:40:25;;;;;;;9.27;6.28;;;10.60;99.90;;;;;;2482945;23;20007;-72
2022/05/02 00:41:27;;;;;;;10.30;6.32;;;10.60;99.90;;;;;;2483226;23;20004;-72
2022/05/02 00:42:28;;;;;;;9.52;5.95;;;10.50;99.90;;;;;;2483872;23;20011;-73
2022/05/02 00:43:28;;;;;;;8.18;5.95;;;10.50;99.90;;;;;;2482990;23;20778;-71
2022/05/02 00:44:29;;;;;;;6.28;5.32;;;10.50;99.90;;;;;;2471383;24;20020;-72
2022/05/02 00:45:35;;;;;;;8.20;5.43;;;10.50;99.90;;;;;;2483047;23;20007;-72
2022/05/02 00:46:37;;;;;;;7.18;5.68;;;10.40;99.90;;;;;;2483557;23;20011;-72
2022/05/02 00:47:38;;;;;;;9.05;5.75;;;10.40;99.90;;;;;;2483175;23;20098;-72
2022/05/02 00:48:38;;;;;;;7.10;5.68;;;10.40;99.90;;;;;;2483820;23;20003;-72
2022/05/02 00:49:39;;;;;;;7.32;5.85;;;10.40;99.90;;;;;;2494623;23;20348;-72
2022/05/02 00:50:42;;;;;;;6.60;5.35;;;10.40;99.90;;;;;;2494671;23;20013;-71
2022/05/02 00:51:43;;;;;;;6.97;5.72;;;10.40;99.90;;;;;;2494624;23;20027;-72
2022/05/02 00:52:43;;;;;;;6.95;5.72;;;10.30;99.90;;;;;;2494810;23;20345;-71
2022/05/02 00:53:47;;;;;;;10.40;5.90;;;10.30;99.90;;;;;;2483773;23;20012;-71
2022/05/02 00:54:49;;;;;;;7.80;5.75;;;10.30;99.90;;;;;;2483799;23;20008;-71
2022/05/02 00:55:50;;;;;;;9.00;6.05;;;10.30;99.90;;;;;;2482769;23;20008;-72
2022/05/02 00:56:50;;;;;;;9.20;6.00;;;10.30;99.90;;;;;;2482658;23;20584;-70
2022/05/02 00:57:52;;;;;;;8.88;5.43;;;10.30;99.90;;;;;;2483726;23;20011;-72
2022/05/02 00:58:54;;;;;;;7.18;5.57;;;10.20;99.90;;;;;;2494831;23;20003;-72
2022/05/02 00:59:54;;;;;;;6.32;5.35;;;10.20;99.90;;;;;;2494344;23;20189;-71
2022/05/02 01:00:55;;;;;;;6.55;5.43;;;10.20;99.90;;;;;;2483631;23;20566;-72
2022/05/02 01:01:56;;;;;;;7.70;5.65;;;10.20;99.90;;;;;;2494759;23;20007;-72
2022/05/02 01:02:57;;;;;;;7.28;5.93;;;10.20;99.90;;;;;;2494912;23;20030;-72
2022/05/02 01:03:58;;;;;;;7.97;5.90;;;10.20;99.90;;;;;;2483701;23;20026;-71
2022/05/02 01:04:58;;;;;;;7.50;5.82;;;10.10;99.90;;;;;;2483727;23;20007;-71
2022/05/02 01:07:19;;;;;;;8.73;6.10;;;10.10;99.90;;;;;;2482363;23;20022;-71
2022/05/02 01:08:19;;;;;;;7.53;6.32;;;10.10;99.90;;;;;;2483140;23;20042;-72
2022/05/02 01:09:20;;;;;;;8.57;6.80;;;10.10;99.90;;;;;;2483680;23;20021;-71
2022/05/02 01:10:21;;;;;;;8.25;6.40;;;10.10;99.90;;;;;;2483482;23;20019;-72
2022/05/02 01:11:21;;;;;;;9.25;6.57;;;10.10;99.90;;;;;;2483861;23;20449;-73
2022/05/02 01:12:24;;;;;;;8.85;7.05;;;10.10;99.90;;;;;;2494926;23;20007;-71
2022/05/02 01:13:46;;;;;;;8.85;6.95;;;10.10;99.90;;;;;;2494828;23;20007;-72
2022/05/02 01:14:48;;;;;;;9.18;7.30;;;10.00;99.90;;;;;;2491362;23;20436;-73
2022/05/02 01:15:49;;;;;;;9.63;7.40;;;10.10;99.90;;;;;;2471871;24;20070;-71
2022/05/02 01:16:50;;;;;;;9.18;7.15;;;10.00;99.90;;;;;;2471386;24;20441;-74
2022/05/02 01:17:50;;;;;;;9.80;7.15;;;10.00;99.90;;;;;;2483424;23;20008;-71
2022/05/02 01:18:54;;;;;;;8.25;7.00;;;10.00;99.90;;;;;;2483710;23;20004;-71
2022/05/02 01:19:54;;;;;;;7.75;6.50;;;10.00;99.90;;;;;;2483573;23;20022;-72
2022/05/02 01:20:55;;;;;;;10.75;7.55;;;10.00;99.90;;;;;;2483763;23;20007;-72
2022/05/02 01:21:56;;;;;;;9.32;7.05;;;10.00;99.90;;;;;;2483847;23;20534;-71
2022/05/02 01:22:56;;;;;;;8.93;7.15;;;10.00;99.90;;;;;;2482984;23;20403;-71
2022/05/02 01:24:04;;;;;;;10.57;7.80;;;10.00;99.90;;;;;;2482957;23;20016;-71
2022/05/02 01:25:05;;;;;;;10.27;8.20;;;10.00;99.90;;;;;;2483638;23;20035;-71
2022/05/02 01:26:05;;;;;;;9.27;7.40;;;10.00;99.90;;;;;;2483569;23;20497;-71
2022/05/02 01:27:08;;;;;;;11.70;7.82;;;9.90;99.90;;;;;;2482888;23;20038;-71
2022/05/02 01:28:11;;;;;;;9.95;7.10;;;9.90;99.90;;;;;;2483664;23;20011;-70
2022/05/02 01:29:11;;;;;;;10.20;7.60;;;9.90;99.90;;;;;;2482850;23;20033;-71
2022/05/02 01:30:12;;;;;;;10.23;7.07;;;9.90;99.90;;;;;;2482755;23;20455;-71
2022/05/02 01:31:14;;;;;;;11.02;7.22;;;9.90;99.90;;;;;;2483802;23;20015;-69
2022/05/02 01:32:15;;;;;;;10.20;7.72;;;9.80;99.90;;;;;;2483219;23;20016;-70
2022/05/02 01:33:16;;;;;;;9.80;7.78;;;9.90;99.90;;;;;;2494662;23;20150;-69
2022/05/02 01:34:17;;;;;;;9.48;8.07;;;9.80;99.90;;;;;;2494608;23;20003;-72
2022/05/02 01:35:17;;;;;;;9.48;7.65;;;9.80;99.90;;;;;;2494588;23;20003;-72
2022/05/02 01:36:20;;;;;;;9.30;7.20;;;9.80;99.90;;;;;;2483355;23;20030;-70
2022/05/02 01:37:21;;;;;;;10.52;7.65;;;9.80;99.90;;;;;;2482582;23;20015;-71
2022/05/02 01:38:22;;;;;;;10.63;7.47;;;9.80;99.90;;;;;;2482870;23;20011;-71
2022/05/02 01:39:22;;;;;;;9.57;7.70;;;9.80;99.90;;;;;;2482673;23;20057;-70
2022/05/02 01:40:23;;;;;;;9.20;7.53;;;9.80;99.90;;;;;;2494332;23;20106;-72
2022/05/02 01:41:23;;;;;;;10.52;8.35;;;9.80;99.90;;;;;;2483702;23;20016;-72
2022/05/02 01:42:24;;;;;;;9.00;7.32;;;9.80;99.90;;;;;;2494637;23;20460;-72
2022/05/02 01:43:25;;;;;;;9.02;7.38;;;9.80;99.90;;;;;;2494647;23;20503;-70
2022/05/02 01:44:26;;;;;;;8.60;7.40;;;9.80;99.90;;;;;;2483661;23;20039;-72
2022/05/02 01:45:26;;;;;;;9.50;7.45;;;9.80;99.90;;;;;;2482963;23;20488;-70
2022/05/02 01:46:27;;;;;;;10.68;7.72;;;9.80;99.90;;;;;;2482750;23;20008;-72
2022/05/02 01:47:27;;;;;;;11.70;7.65;;;9.80;99.90;;;;;;2482881;23;20060;-72
2022/05/02 01:48:28;;;;;;;10.65;7.80;;;9.80;99.90;;;;;;2483500;23;20012;-70
2022/05/02 01:49:29;;;;;;;8.88;7.70;;;9.80;99.90;;;;;;2483640;23;20050;-70
2022/05/02 01:50:30;;;;;;;10.45;7.85;;;9.80;99.90;;;;;;2483115;23;20004;-70
2022/05/02 01:51:30;;;;;;;8.93;7.40;;;9.80;99.90;;;;;;2482642;23;20012;-72
2022/05/02 01:52:31;;;;;;;9.23;7.78;;;9.80;99.90;;;;;;2482822;23;20461;-72
2022/05/02 01:53:31;;;;;;;10.73;7.80;;;9.80;99.90;;;;;;2483566;23;20707;-72
2022/05/02 01:54:32;;;;;;;10.18;7.47;;;9.80;99.90;;;;;;2483511;23;20008;-73
2022/05/02 01:55:33;;;;;;;9.75;7.45;;;9.80;99.90;;;;;;2483567;23;20011;-71
2022/05/02 01:56:33;;;;;;;8.63;7.30;;;9.90;99.90;;;;;;2494232;23;20125;-72
2022/05/02 01:57:34;;;;;;;9.27;7.35;;;9.90;99.90;;;;;;2493937;23;20029;-72
2022/05/02 01:58:35;;;;;;;8.57;7.32;;;9.90;99.90;;;;;;2483336;23;20444;-72
2022/05/02 01:59:35;;;;;;;10.32;7.20;;;9.90;99.90;;;;;;2483371;23;20006;-72
2022/05/02 02:00:36;;;;;;;10.50;7.43;;;9.90;99.90;;;;;;2483152;23;20071;-72
2022/05/02 02:01:37;;;;;;;9.23;7.00;;;9.90;99.90;;;;;;2494388;23;20015;-72
2022/05/02 02:02:37;;;;;;;9.68;7.20;;;9.90;99.90;;;;;;2494363;23;20452;-72
2022/05/02 02:03:38;;;;;;;10.05;7.28;;;9.90;99.90;;;;;;2483376;23;20441;-72
2022/05/02 02:05:58;;;;;;;9.38;7.20;;;9.90;99.90;;;;;;2482975;23;20018;-71
2022/05/02 02:06:59;;;;;;;11.00;7.10;;;9.90;99.90;;;;;;2482767;23;20022;-72
2022/05/02 02:08:00;;;;;;;11.88;7.57;;;9.90;99.90;;;;;;2494328;23;20031;-72
2022/05/02 02:09:01;;;;;;;9.60;7.35;;;9.90;99.90;;;;;;2494386;23;20446;-71
2022/05/02 02:10:01;;;;;;;10.43;7.63;;;9.80;99.90;;;;;;2483224;23;20008;-71
2022/05/02 02:11:05;;;;;;;11.82;8.30;;;9.80;99.90;;;;;;2483535;23;20437;-71
2022/05/02 02:12:06;;;;;;;11.77;7.75;;;9.80;99.90;;;;;;2494132;23;20011;-73
2022/05/02 02:13:06;;;;;;;9.85;8.07;;;9.80;99.90;;;;;;2494337;23;20484;-72
2022/05/02 02:14:07;;;;;;;10.85;8.38;;;9.80;99.90;;;;;;2494375;23;20022;-72
2022/05/02 02:15:08;;;;;;;9.95;8.20;;;9.80;99.90;;;;;;2494404;23;20007;-72
2022/05/02 02:16:13;;;;;;;10.75;8.23;;;9.80;99.90;;;;;;2494163;23;20017;-70
2022/05/02 02:17:14;;;;;;;9.57;7.57;;;9.80;99.90;;;;;;2492930;23;20015;-73
2022/05/02 02:18:15;;;;;;;9.85;7.60;;;9.80;99.90;;;;;;2482683;23;20728;-72
2022/05/02 02:19:16;;;;;;;10.23;7.57;;;9.80;99.90;;;;;;2482593;23;20014;-72
2022/05/02 02:20:16;;;;;;;11.00;7.97;;;9.80;99.90;;;;;;2483044;23;20652;-70
2022/05/02 02:21:17;;;;;;;11.05;7.55;;;9.80;99.90;;;;;;2483338;23;20022;-70
2022/05/02 02:22:18;;;;;;;11.35;7.43;;;9.80;99.90;;;;;;2483291;23;20039;-69
2022/05/02 02:23:20;;;;;;;10.18;7.75;;;9.80;99.90;;;;;;2483438;23;20015;-71
2022/05/02 02:24:20;;;;;;;9.40;7.43;;;9.90;99.90;;;;;;2494181;23;20015;-72
2022/05/02 02:25:21;;;;;;;9.32;7.85;;;9.90;99.90;;;;;;2494165;23;20025;-72
2022/05/02 02:26:22;;;;;;;9.80;7.63;;;9.90;99.90;;;;;;2494152;23;20015;-69
2022/05/02 02:27:22;;;;;;;8.38;7.13;;;9.90;99.90;;;;;;2493969;23;20042;-72
2022/05/02 02:28:23;;;;;;;10.40;7.50;;;9.90;99.90;;;;;;2494505;23;20645;-72
2022/05/02 02:29:24;;;;;;;9.45;7.72;;;9.90;99.90;;;;;;2483452;23;20412;-71
2022/05/02 02:30:25;;;;;;;9.48;7.47;;;9.90;99.90;;;;;;2483147;23;20438;-71
2022/05/02 02:31:25;;;;;;;10.40;7.63;;;9.90;99.90;;;;;;2483421;23;20099;-72
2022/05/02 02:32:27;;;;;;;9.00;7.75;;;9.90;99.90;;;;;;2482372;23;20480;-72
2022/05/02 02:33:28;;;;;;;10.30;7.25;;;9.90;99.90;;;;;;2482887;23;20004;-71
2022/05/02 02:34:28;;;;;;;9.13;7.63;;;9.90;99.90;;;;;;2494363;23;20007;-71
2022/05/02 02:35:30;;;;;;;8.52;7.40;;;9.90;99.90;;;;;;2483254;23;20059;-71
2022/05/02 02:36:30;;;;;;;8.20;7.30;;;9.90;99.90;;;;;;2494119;23;20444;-72
2022/05/02 02:37:31;;;;;;;9.52;7.47;;;9.90;99.90;;;;;;2493881;23;20008;-71
2022/05/02 02:38:32;;;;;;;8.90;7.20;;;9.90;99.90;;;;;;2494328;23;20034;-71
2022/05/02 02:39:32;;;;;;;8.85;7.20;;;9.90;99.90;;;;;;2494196;23;20078;-72
2022/05/02 02:40:33;;;;;;;9.30;7.07;;;9.90;99.90;;;;;;2483140;23;20004;-71
2022/05/02 02:41:33;;;;;;;7.80;6.63;;;9.90;99.90;;;;;;2483379;23;20031;-72
2022/05/02 02:42:35;;;;;;;8.57;6.50;;;9.90;99.90;;;;;;2482556;23;20012;-71
2022/05/02 02:43:35;;;;;;;8.23;6.47;;;9.90;99.90;;;;;;2482699;23;20132;-70
2022/05/02 02:44:36;;;;;;;8.23;6.38;;;9.90;99.90;;;;;;2483373;23;20023;-72
2022/05/02 02:45:37;;;;;;;7.72;6.53;;;9.90;99.90;;;;;;2483574;23;20004;-72
2022/05/02 02:46:38;;;;;;;8.52;6.65;;;10.00;99.90;;;;;;2482583;23;20040;-72
2022/05/02 02:47:39;;;;;;;7.85;6.30;;;10.00;99.90;;;;;;2482198;23;20092;-72
2022/05/02 02:48:39;;;;;;;9.07;6.30;;;10.00;99.90;;;;;;2483348;23;20393;-71
2022/05/02 02:49:40;;;;;;;7.80;6.20;;;10.00;99.90;;;;;;2483261;23;20071;-71
2022/05/02 02:50:40;;;;;;;9.18;6.05;;;10.00;99.90;;;;;;2483782;23;20034;-71
2022/05/02 02:51:41;;;;;;;9.18;7.20;;;10.00;99.90;;;;;;2483330;23;20010;-70
2022/05/02 02:52:42;;;;;;;9.25;6.97;;;10.00;99.90;;;;;;2483459;23;20026;-70
2022/05/02 02:53:42;;;;;;;10.77;7.18;;;10.00;99.90;;;;;;2484209;23;20095;-70
2022/05/02 02:54:43;;;;;;;10.20;6.82;;;10.00;99.90;;;;;;2494991;23;20476;-70
2022/05/02 02:55:44;;;;;;;10.07;6.50;;;10.10;99.90;;;;;;2483406;23;20823;-70
2022/05/02 02:56:44;;;;;;;8.98;6.70;;;10.10;99.90;;;;;;2483345;23;20015;-69
2022/05/02 02:57:45;;;;;;;7.97;6.60;;;10.00;99.90;;;;;;2483454;23;20019;-69
2022/05/02 02:58:46;;;;;;;9.95;6.65;;;10.10;99.90;;;;;;2484012;23;20000;-72
2022/05/02 02:59:46;;;;;;;7.30;6.15;;;10.10;99.90;;;;;;2484251;23;20010;-72
2022/05/02 03:00:47;;;;;;;10.20;7.20;;;10.10;99.90;;;;;;2483928;23;20079;-73
2022/05/02 03:01:47;;;;;;;9.27;6.70;;;10.10;99.90;;;;;;2484598;23;20043;-73
2022/05/02 03:02:49;;;;;;;9.55;6.88;;;10.10;99.90;;;;;;2484407;23;20002;-72
2022/05/02 03:03:50;;;;;;;10.23;7.30;;;10.10;99.90;;;;;;2472124;24;20015;-70
2022/05/02 03:06:10;;;;;;;9.95;7.00;;;10.00;99.90;;;;;;2484356;23;20008;-71
2022/05/02 03:07:12;;;;;;;12.00;7.13;;;10.00;99.90;;;;;;2483977;23;20087;-71
2022/05/02 03:08:13;;;;;;;10.18;6.68;;;10.00;99.90;;;;;;2484603;23;20004;-74
2022/05/02 03:09:13;;;;;;;7.65;6.75;;;10.00;99.90;;;;;;2495310;23;20034;-72
2022/05/02 03:10:14;;;;;;;8.35;6.80;;;10.00;99.90;;;;;;2495110;23;20008;-74
2022/05/02 03:11:15;;;;;;;9.50;6.63;;;9.90;99.90;;;;;;2483647;23;20095;-74
2022/05/02 03:12:17;;;;;;;8.40;6.65;;;10.00;99.90;;;;;;2483387;23;20090;-70
2022/05/02 03:13:17;;;;;;;10.80;7.20;;;9.90;99.90;;;;;;2484091;23;20015;-71
2022/05/02 03:14:18;;;;;;;13.85;7.15;;;9.90;99.90;;;;;;2495160;23;20830;-71
2022/05/02 03:15:18;;;;;;;9.68;7.18;;;9.90;99.90;;;;;;2483359;23;20019;-72
2022/05/02 03:16:19;;;;;;;8.32;6.82;;;9.90;99.90;;;;;;2483053;23;20029;-72
2022/05/02 03:17:20;;;;;;;9.55;7.00;;;9.90;99.90;;;;;;2494691;23;20003;-70
2022/05/02 03:18:21;;;;;;;10.38;7.07;;;9.90;99.90;;;;;;2484240;23;20012;-72
2022/05/02 03:19:21;;;;;;;8.60;6.82;;;9.90;99.90;;;;;;2495047;23;20003;-71
2022/05/02 03:20:22;;;;;;;9.45;6.70;;;9.80;99.90;;;;;;2494967;23;20022;-72
2022/05/02 03:21:22;;;;;;;12.35;6.93;;;9.90;99.90;;;;;;2495084;23;20015;-71
2022/05/02 03:22:23;;;;;;;13.05;7.53;;;9.90;99.90;;;;;;2495133;23;20086;-72
2022/05/02 03:23:24;;;;;;;19.13;7.75;;;9.90;99.90;;;;;;2494972;23;20094;-71
2022/05/02 03:24:24;;;;;;;13.60;8.38;;;9.90;99.90;;;;;;2483534;23;20103;-71
2022/05/02 03:25:25;;;;;;;12.90;7.65;;;9.90;99.90;;;;;;2484082;23;20004;-71
2022/05/02 03:26:25;;;;;;;11.57;7.32;;;9.80;99.90;;;;;;2483939;23;20481;-71
2022/05/02 03:27:26;;;;;;;13.98;8.07;;;9.80;99.90;;;;;;2483472;23;20342;-71
2022/05/02 03:28:27;;;;;;;13.18;7.82;;;9.80;99.90;;;;;;2495056;23;20038;-71
2022/05/02 03:29:27;;;;;;;13.57;8.32;;;9.80;99.90;;;;;;2494831;23;20460;-71
2022/05/02 03:30:28;;;;;;;11.05;7.75;;;9.80;99.90;;;;;;2494793;23;20491;-71
2022/05/02 03:31:28;;;;;;;14.60;8.02;;;9.80;99.90;;;;;;2484029;23;20007;-71
2022/05/02 03:32:29;;;;;;;12.98;7.82;;;9.80;99.90;;;;;;2484004;23;20015;-71
2022/05/02 03:33:30;;;;;;;11.07;8.07;;;9.80;99.90;;;;;;2495034;23;20034;-71
2022/05/02 03:34:30;;;;;;;11.88;8.10;;;9.80;99.90;;;;;;2495213;23;20071;-72
2022/05/02 03:35:31;;;;;;;10.65;7.80;;;9.80;99.90;;;;;;2484150;23;20010;-72
2022/05/02 03:36:32;;;;;;;10.23;7.57;;;9.80;99.90;;;;;;2483741;23;20034;-73
2022/05/02 03:37:33;;;;;;;12.10;7.82;;;9.80;99.90;;;;;;2482692;23;20016;-70
2022/05/02 03:38:33;;;;;;;10.20;7.60;;;9.80;99.90;;;;;;2483312;23;20023;-72
2022/05/02 03:39:34;;;;;;;9.68;8.10;;;9.80;99.90;;;;;;2495101;23;20062;-72
2022/05/02 03:40:34;;;;;;;10.65;7.38;;;9.80;99.90;;;;;;2483779;23;20011;-70
2022/05/02 03:41:35;;;;;;;13.20;7.85;;;9.70;99.90;;;;;;2484269;23;20031;-73
2022/05/02 03:42:37;;;;;;;9.20;7.25;;;9.70;99.90;;;;;;2484229;23;20421;-72
2022/05/02 03:43:38;;;;;;;9.30;7.18;;;9.70;99.90;;;;;;2495200;23;20035;-72
2022/05/02 03:44:39;;;;;;;8.88;7.00;;;9.70;99.90;;;;;;2495285;23;20011;-72
2022/05/02 03:45:39;;;;;;;9.07;7.20;;;9.70;99.90;;;;;;2494978;23;20045;-72
2022/05/02 03:46:40;;;;;;;12.77;8.07;;;9.70;99.90;;;;;;2485272;23;20017;-73
2022/05/02 03:47:40;;;;;;;13.07;8.13;;;9.70;99.90;;;;;;2484996;23;20014;-73
2022/05/02 03:48:41;;;;;;;10.63;7.85;;;9.70;99.90;;;;;;2484946;23;20726;-73
2022/05/02 03:49:42;;;;;;;10.80;7.93;;;9.70;99.90;;;;;;2484692;23;20067;-73
2022/05/02 03:50:42;;;;;;;11.70;8.23;;;9.70;99.90;;;;;;2483906;23;20214;-72
2022/05/02 03:51:43;;;;;;;11.13;8.57;;;9.70;99.90;;;;;;2483259;23;20015;-72
2022/05/02 03:52:43;;;;;;;10.52;7.90;;;9.70;99.90;;;;;;2483385;23;20007;-72
2022/05/02 03:53:44;;;;;;;9.55;7.68;;;9.70;99.90;;;;;;2484054;23;20008;-73
2022/05/02 03:54:45;;;;;;;10.95;7.97;;;9.70;99.90;;;;;;2483175;23;20054;-72
2022/05/02 03:55:45;;;;;;;10.65;8.07;;;9.70;99.90;;;;;;2483512;23;20031;-72
2022/05/02 03:56:46;;;;;;;10.75;8.10;;;9.70;99.90;;;;;;2495373;23;20009;-72
2022/05/02 03:57:46;;;;;;;11.00;8.20;;;9.70;99.90;;;;;;2483444;23;20023;-72
2022/05/02 03:58:47;;;;;;;11.05;8.50;;;9.70;99.90;;;;;;2483901;23;20011;-72
2022/05/02 03:59:48;;;;;;;12.25;8.35;;;9.70;99.90;;;;;;2484841;23;20103;-71
2022/05/02 04:00:48;;;;;;;11.23;8.18;;;9.70;99.90;;;;;;2484610;23;20303;-71
2022/05/02 04:01:49;;;;;;;11.85;8.02;;;9.70;99.90;;;;;;2484945;23;20027;-71
2022/05/02 04:02:49;;;;;;;11.57;8.00;;;9.70;99.90;;;;;;2484861;23;20031;-71
2022/05/02 04:03:50;;;;;;;9.63;7.72;;;9.80;99.90;;;;;;2484910;23;20011;-70
2022/05/02 04:04:51;;;;;;;9.85;7.60;;;9.80;99.90;;;;;;2484947;23;20355;-70
2022/05/02 04:05:51;;;;;;;9.82;7.88;;;9.80;99.90;;;;;;2484958;23;20342;-70
2022/05/02 04:06:52;;;;;;;11.40;8.15;;;9.90;99.90;;;;;;2495698;23;19999;-70
2022/05/02 04:07:52;;;;;;;10.80;7.97;;;9.80;99.90;;;;;;2495849;23;20007;-71
2022/05/02 04:08:53;;;;;;;10.05;7.60;;;9.90;99.90;;;;;;2484807;23;20099;-71
2022/05/02 04:09:54;;;;;;;13.40;8.45;;;9.90;99.90;;;;;;2484639;23;20027;-70
2022/05/02 04:10:54;;;;;;;10.52;7.90;;;9.90;99.90;;;;;;2484639;23;20008;-70
2022/05/02 04:11:56;;;;;;;9.05;7.75;;;10.00;99.90;;;;;;2495488;23;20015;-71
2022/05/02 04:12:57;;;;;;;12.07;7.88;;;9.90;99.90;;;;;;2495553;23;20034;-71
2022/05/02 04:13:58;;;;;;;10.82;7.75;;;10.00;99.90;;;;;;2483768;23;20031;-70
2022/05/02 04:14:58;;;;;;;11.85;8.80;;;10.00;99.90;;;;;;2483751;23;20095;-71
2022/05/02 04:15:59;;;;;;;12.45;8.10;;;10.00;99.90;;;;;;2483805;23;20019;-71
2022/05/02 04:17:00;;;;;;;9.65;7.82;;;10.00;99.90;;;;;;2472450;23;20426;-71
2022/05/02 04:18:00;;;;;;;10.88;8.23;;;10.00;99.90;;;;;;2484773;23;20003;-70
2022/05/02 04:19:01;;;;;;;10.07;7.88;;;10.00;99.90;;;;;;2496283;23;20007;-71
2022/05/02 04:20:03;;;;;;;11.18;7.93;;;10.00;99.90;;;;;;2495793;23;20366;-72
2022/05/02 04:21:03;;;;;;;10.45;8.10;;;10.00;99.90;;;;;;2496403;23;20008;-71
2022/05/02 04:22:04;;;;;;;9.93;8.05;;;10.00;99.90;;;;;;2484713;23;20015;-71
2022/05/02 04:23:05;;;;;;;12.45;8.02;;;10.00;99.90;;;;;;2485007;23;20016;-71
2022/05/02 04:24:06;;;;;;;11.60;7.68;;;10.10;99.90;;;;;;2497012;23;20392;-71
2022/05/02 04:25:07;;;;;;;10.52;7.80;;;10.10;99.90;;;;;;2484685;23;20033;-71
2022/05/02 04:26:08;;;;;;;10.57;7.60;;;10.10;99.90;;;;;;2471966;23;20035;-71
2022/05/02 04:27:08;;;;;;;10.77;7.55;;;10.10;99.90;;;;;;2483936;23;20008;-71
2022/05/02 04:28:10;;;;;;;11.73;8.50;;;10.20;99.90;;;;;;2485032;23;20008;-71
2022/05/02 04:29:11;;;;;;;13.07;8.93;;;10.20;99.90;;;;;;2495809;23;20019;-71
2022/05/02 04:30:12;;;;;;;11.93;8.25;;;10.20;99.90;;;;;;2495314;23;20011;-71
2022/05/02 04:31:12;;;;;;;10.25;8.00;;;10.20;99.90;;;;;;2484434;23;20047;-71
2022/05/02 04:32:13;;;;;;;11.45;7.85;;;10.20;99.90;;;;;;2484565;23;20014;-71
2022/05/02 04:33:14;;;;;;;11.00;8.43;;;10.30;99.90;;;;;;2494756;23;20007;-71
2022/05/02 04:34:15;;;;;;;11.50;7.80;;;10.30;99.90;;;;;;2494838;23;20070;-71
2022/05/02 04:35:15;;;;;;;9.32;7.70;;;10.30;99.90;;;;;;2483712;23;20457;-70
2022/05/02 04:36:16;;;;;;;10.98;7.70;;;10.30;99.90;;;;;;2483777;23;20377;-71
2022/05/02 04:37:17;;;;;;;10.32;7.75;;;10.30;99.90;;;;;;2483036;23;20030;-70
2022/05/02 04:38:17;;;;;;;9.25;7.50;;;10.30;99.90;;;;;;2483776;23;20039;-72
2022/05/02 04:39:18;;;;;;;9.02;7.53;;;10.40;99.90;;;;;;2482923;23;20026;-73
2022/05/02 04:40:18;;;;;;;11.32;7.88;;;10.40;99.90;;;;;;2482689;23;20068;-72
2022/05/02 04:41:19;;;;;;;11.70;7.70;;;10.40;99.90;;;;;;2483765;23;20010;-73
2022/05/02 04:42:20;;;;;;;10.23;7.95;;;10.50;99.90;;;;;;2483723;23;20020;-73
2022/05/02 04:43:20;;;;;;;8.70;7.28;;;10.50;99.90;;;;;;2483779;23;20014;-71
2022/05/02 04:44:21;;;;;;;8.88;7.40;;;10.50;99.90;;;;;;2494720;23;20074;-71
2022/05/02 04:45:21;;;;;;;9.52;7.38;;;10.50;99.90;;;;;;2494873;23;20067;-73
2022/05/02 04:46:23;;;;;;;8.85;7.28;;;10.50;99.90;;;;;;2483757;23;20014;-71
2022/05/02 04:47:23;;;;;;;12.02;8.20;;;10.50;99.90;;;;;;2483349;23;20520;-71
2022/05/02 04:48:24;;;;;;;9.35;7.55;;;10.50;99.90;;;;;;2483790;23;20075;-73
2022/05/02 04:49:24;;;;;;;11.38;7.82;;;10.60;99.90;;;;;;2484444;23;20079;-72
2022/05/02 04:50:25;;;;;;;11.00;7.88;;;10.60;99.90;;;;;;2484256;23;20038;-72
2022/05/02 04:51:26;;;;;;;12.35;8.20;;;10.60;99.90;;;;;;2495435;23;20014;-73
2022/05/02 04:52:26;;;;;;;12.05;8.18;;;10.60;99.90;;;;;;2495180;23;20477;-73
2022/05/02 04:53:27;;;;;;;11.40;8.20;;;10.60;99.90;;;;;;2484399;23;20011;-73
2022/05/02 04:54:27;;;;;;;9.30;6.88;;;10.70;99.90;;;;;;2495081;23;20011;-73
2022/05/02 04:55:28;;;;;;;11.50;7.90;;;10.80;99.90;;;;;;2495117;23;20004;-73
2022/05/02 04:56:29;;;;;;;11.35;7.75;;;10.80;99.90;;;;;;2483765;23;20018;-73
2022/05/02 04:57:29;;;;;;;9.57;7.80;;;10.80;99.90;;;;;;2483503;23;20008;-74
2022/05/02 04:58:30;;;;;;;9.38;7.55;;;10.90;99.90;;;;;;2484125;23;20111;-73
2022/05/02 04:59:30;;;;;;;9.45;7.53;;;10.90;99.90;;;;;;2483180;23;20019;-72
2022/05/02 05:00:31;;;;;;;9.27;7.22;;;10.90;99.90;;;;;;2483088;23;20004;-72
2022/05/02 05:01:32;;;;;;;10.82;7.47;;;11.00;99.90;;;;;;2484167;23;20032;-71
2022/05/02 05:02:33;;;;;;;11.70;7.30;;;11.00;99.90;;;;;;2484177;23;20018;-71
2022/05/02 05:03:34;;;;;;;14.30;8.88;;;11.00;99.90;;;;;;2483245;23;20040;-71
2022/05/02 05:04:35;;;;;;;11.50;7.88;;;11.00;99.90;;;;;;2483181;23;20007;-72
2022/05/02 05:05:36;;;;;;;13.25;8.10;;;11.10;99.90;;;;;;2482953;23;20412;-71
2022/05/02 05:06:37;;;;;;;13.73;8.27;;;11.10;99.90;;;;;;2483101;23;20000;-73
2022/05/02 05:07:38;;;;;;;11.25;8.15;;;11.20;99.90;;;;;;2483504;23;20154;-71
2022/05/02 05:08:40;;;;;;;11.23;8.23;;;11.30;99.90;;;;;;2494962;23;20082;-73
2022/05/02 05:09:40;;;;;;;11.63;8.25;;;11.30;99.90;;;;;;2495000;23;20094;-72
2022/05/02 05:11:00;;;;;;;11.75;7.60;;;11.40;99.90;;;;;;2494645;23;20015;-73
2022/05/02 05:12:36;;;;;;;9.95;7.55;;;11.40;99.90;;;;;;2491550;23;20652;-72
2022/05/02 05:16:20;;;;;;;11.85;8.20;;;11.50;99.90;;;;;;2483161;23;20017;-72
2022/05/02 05:17:05;;;;;;;11.65;8.07;;;11.60;99.90;;;;;;2483751;23;20008;-73
2022/05/02 05:18:24;;;;;;;12.45;8.35;;;11.70;99.90;;;;;;2484523;23;20019;-72
2022/05/02 05:19:43;;;;;;;11.55;7.75;;;11.70;99.90;;;;;;2488502;23;20012;-72
2022/05/02 05:21:04;;;;;;;10.13;8.30;;;11.80;99.90;;;;;;2492777;23;20030;-72
2022/05/02 05:22:31;;;;;;;10.95;7.82;;;11.90;99.90;;;;;;2483816;23;20023;-73
2022/05/02 05:23:56;;;;;;;10.02;7.47;;;11.90;99.90;;;;;;2484519;23;20014;-73
2022/05/02 05:25:03;;;;;;;10.63;8.10;;;12.00;99.90;;;;;;2484313;23;20008;-74
2022/05/02 05:26:35;;;;;;;12.20;7.90;;;12.10;99.90;;;;;;2484276;23;20007;-72